Indigo Sun — D5OF6 — position and weather

sailwx.info

Track history (hours):
 
Tides and Currents Weather Stations Pressure Air Temp Water Temp Dewpoint Dewpoint Depression Visibility Wind Speed Wind Dir Waves Ship Positions

Indigo Sun

Last reported at 2017-Oct-19 19:34 UTC. Time now 2017-Oct-20 16:16 UTC.
Position N 39°35' E 019°10'.

Length 249 m; draft 8 m.

Type: Ship (hazmat cat C). MMSI: 636018113.

Date/timePositionNaut miles runAvg speedWind from/ knotsBaromVisibWave heightAir tempDewpointWater temp
2017-Oct-19 19:34N 39°35' E 019°10'112.8
2017-Oct-19 19:29N 39°36' E 019°09'712.8
2017-Oct-19 18:56N 39°42' E 019°04'613.0
2017-Oct-19 18:29N 39°47' E 019°01'2112.9
2017-Oct-19 16:51N 40°05' E 018°48'10612.7
2017-Oct-19 08:34N 41°27' E 017°19'111.8
2017-Oct-19 08:29N 41°28' E 017°18'13312.1
2017-Oct-18 21:28N 42°56' E 015°04'612.2
2017-Oct-18 21:00N 42°60' E 014°57'611.9
2017-Oct-18 20:30N 43°03' E 014°51'1511.9
2017-Oct-18 19:16N 43°12' E 014°35'312.0
2017-Oct-18 18:59N 43°14' E 014°31'612.2
2017-Oct-18 18:30N 43°17' E 014°24'612.1
2017-Oct-18 17:59N 43°21' E 014°17'611.9
2017-Oct-18 17:31N 43°26' E 014°13'611.4
2017-Oct-18 17:00N 43°30' E 014°08'612.1
2017-Oct-18 16:30N 43°34' E 014°02'612.1
2017-Oct-18 16:00N 43°38' E 013°55'612.0
2017-Oct-18 15:30N 43°41' E 013°49'612.0
2017-Oct-18 15:00N 43°44' E 013°42'7 7.4
2017-Oct-18 13:59N 43°44' E 013°31'1 0.0
2017-Oct-17 09:44N 43°45' E 013°31'0 0.4
2017-Oct-17 09:21N 43°44' E 013°32'1 2.1
2017-Oct-17 09:00N 43°44' E 013°32'1 1.7
2017-Oct-17 08:30N 43°43' E 013°32'0 0.1
2017-Oct-17 06:57N 43°43' E 013°33'0 0.1
2017-Oct-17 06:24N 43°43' E 013°33'0 0.1
2017-Oct-17 04:48N 43°43' E 013°32'0 0.0
2017-Oct-17 04:24N 43°43' E 013°32'0 0.0
2017-Oct-17 03:54N 43°43' E 013°32'0 0.0
2017-Oct-17 03:15N 43°43' E 013°32'0 0.0
2017-Oct-17 03:00N 43°43' E 013°32'0 0.1
2017-Oct-17 02:24N 43°43' E 013°33'0 0.1
2017-Oct-17 02:00N 43°43' E 013°33'0 0.0
2017-Oct-17 00:57N 43°43' E 013°33'0 0.0
2017-Oct-17 00:12N 43°43' E 013°33'0 0.0
2017-Oct-16 23:48N 43°43' E 013°33'0 0.0
2017-Oct-16 23:27N 43°43' E 013°33'0 0.0
2017-Oct-16 23:00N 43°43' E 013°33'0 0.0
2017-Oct-16 22:30N 43°43' E 013°33'0 0.0
2017-Oct-16 21:48N 43°43' E 013°33'0 0.0
2017-Oct-16 21:30N 43°43' E 013°33'0 0.1
2017-Oct-16 20:48N 43°43' E 013°32'0 0.3
2017-Oct-16 20:27N 43°43' E 013°32'0 0.1
2017-Oct-16 19:57N 43°43' E 013°32'0 0.0
2017-Oct-16 19:18N 43°43' E 013°32'0 0.0
2017-Oct-16 18:54N 43°43' E 013°32'0 0.0
2017-Oct-16 18:30N 43°43' E 013°32'0 0.0
2017-Oct-16 18:00N 43°43' E 013°32'0 0.0
2017-Oct-16 17:18N 43°43' E 013°32'0 0.0
2017-Oct-16 16:57N 43°43' E 013°32'0 0.0
2017-Oct-16 16:30N 43°43' E 013°32'0 0.0
2017-Oct-16 15:45N 43°43' E 013°32'0 0.0
2017-Oct-16 15:09N 43°43' E 013°32'0 0.1
2017-Oct-16 15:00N 43°43' E 013°32'0 0.2
2017-Oct-16 14:00N 43°43' E 013°33'2 3.1
2017-Oct-16 13:28N 43°43' E 013°35'4 6.7
2017-Oct-16 12:55N 43°43' E 013°40'2 4.9
2017-Oct-16 12:30N 43°44' E 013°43'4 7.4
2017-Oct-16 12:00N 43°42' E 013°48'612.5
2017-Oct-16 11:30N 43°38' E 013°54'612.8
2017-Oct-16 11:01N 43°35' E 014°01'713.1
2017-Oct-16 10:31N 43°30' E 014°08'713.2
2017-Oct-16 09:59N 43°26' E 014°16'713.5
2017-Oct-16 09:30N 43°22' E 014°23'713.2
2017-Oct-16 08:57N 43°18' E 014°31'813.3
2017-Oct-16 08:20N 43°13' E 014°40'513.7
2017-Oct-16 07:59N 43°10' E 014°45'714.0
2017-Oct-16 07:29N 43°06' E 014°53'714.1
2017-Oct-16 07:00N 43°01' E 014°60'5313.9
2017-Oct-16 03:10N 42°29' E 015°57'513.9
2017-Oct-16 02:48N 42°26' E 016°02'3714.0
2017-Oct-16 00:12N 41°60' E 016°38'313.9
2017-Oct-15 23:58N 41°58' E 016°41'613.8
2017-Oct-15 23:30N 41°53' E 016°47'713.9
2017-Oct-15 23:00N 41°48' E 016°53'714.0
2017-Oct-15 22:30N 41°44' E 017°00'714.0
2017-Oct-15 22:01N 41°40' E 017°08'714.0
2017-Oct-15 21:31N 41°36' E 017°16'914.1
2017-Oct-15 20:52N 41°31' E 017°26'514.0
2017-Oct-15 20:30N 41°28' E 017°32'713.9
2017-Oct-15 20:01N 41°25' E 017°39'713.7
2017-Oct-15 19:30N 41°21' E 017°47'713.7
2017-Oct-15 19:00N 41°17' E 017°55'713.7
2017-Oct-15 18:31N 41°13' E 018°02'713.7
2017-Oct-15 18:00N 41°10' E 018°10'714.0
2017-Oct-15 17:30N 41°06' E 018°17'713.9
2017-Oct-15 17:01N 41°01' E 018°25'713.8
2017-Oct-15 16:30N 40°56' E 018°30'713.8
2017-Oct-15 16:00N 40°49' E 018°33'713.5
2017-Oct-15 15:30N 40°43' E 018°37'713.4
2017-Oct-15 14:59N 40°37' E 018°41'12113.8
2017-Oct-15 06:16N 38°47' E 019°47'614.2
2017-Oct-15 05:52N 38°42' E 019°50'614.0
2017-Oct-15 05:28N 38°37' E 019°52'614.0
2017-Oct-15 05:00N 38°31' E 019°56'713.9
2017-Oct-15 04:30N 38°25' E 019°59'713.7
2017-Oct-15 04:00N 38°18' E 020°03'713.7
2017-Oct-15 03:30N 38°12' E 020°07'7313.8
2017-Oct-14 22:13N 37°08' E 020°50'206 9.3
2017-Oct-14 00:01N 38°25' E 024°53'9913.9
2017-Oct-13 16:54N 39°54' E 025°49'514.0
2017-Oct-13 16:30N 39°58' E 025°54'1213.3
2017-Oct-13 15:36N 40°01' E 026°09'112.8
2017-Oct-13 15:30N 40°02' E 026°10'  
Track history (hours):
 
Tides and Currents Weather Stations Pressure Air Temp Water Temp Dewpoint Dewpoint Depression Visibility Wind Speed Wind Dir Waves Ship Positions

Indigo Sun

Last reported at 2017-Oct-19 19:34 UTC. Time now 2017-Oct-20 16:16 UTC.
Position N 39°35' E 019°10'.

Length 249 m; draft 8 m.

Type: Ship (hazmat cat C). MMSI: 636018113.

Date/timePositionNaut miles runAvg speedWind from/ knotsBaromVisibWave heightAir tempDewpointWater temp
2017-Oct-19 19:34N 39°35' E 019°10'112.8
2017-Oct-19 19:29N 39°36' E 019°09'712.8
2017-Oct-19 18:56N 39°42' E 019°04'613.0
2017-Oct-19 18:29N 39°47' E 019°01'2112.9
2017-Oct-19 16:51N 40°05' E 018°48'10612.7
2017-Oct-19 08:34N 41°27' E 017°19'111.8
2017-Oct-19 08:29N 41°28' E 017°18'13312.1
2017-Oct-18 21:28N 42°56' E 015°04'612.2
2017-Oct-18 21:00N 42°60' E 014°57'611.9
2017-Oct-18 20:30N 43°03' E 014°51'1511.9
2017-Oct-18 19:16N 43°12' E 014°35'312.0
2017-Oct-18 18:59N 43°14' E 014°31'612.2
2017-Oct-18 18:30N 43°17' E 014°24'612.1
2017-Oct-18 17:59N 43°21' E 014°17'611.9
2017-Oct-18 17:31N 43°26' E 014°13'611.4
2017-Oct-18 17:00N 43°30' E 014°08'612.1
2017-Oct-18 16:30N 43°34' E 014°02'612.1
2017-Oct-18 16:00N 43°38' E 013°55'612.0
2017-Oct-18 15:30N 43°41' E 013°49'612.0
2017-Oct-18 15:00N 43°44' E 013°42'7 7.4
2017-Oct-18 13:59N 43°44' E 013°31'1 0.0
2017-Oct-17 09:44N 43°45' E 013°31'0 0.4
2017-Oct-17 09:21N 43°44' E 013°32'1 2.1
2017-Oct-17 09:00N 43°44' E 013°32'1 1.7
2017-Oct-17 08:30N 43°43' E 013°32'0 0.1
2017-Oct-17 06:57N 43°43' E 013°33'0 0.1
2017-Oct-17 06:24N 43°43' E 013°33'0 0.1
2017-Oct-17 04:48N 43°43' E 013°32'0 0.0
2017-Oct-17 04:24N 43°43' E 013°32'0 0.0
2017-Oct-17 03:54N 43°43' E 013°32'0 0.0
2017-Oct-17 03:15N 43°43' E 013°32'0 0.0
2017-Oct-17 03:00N 43°43' E 013°32'0 0.1
2017-Oct-17 02:24N 43°43' E 013°33'0 0.1
2017-Oct-17 02:00N 43°43' E 013°33'0 0.0
2017-Oct-17 00:57N 43°43' E 013°33'0 0.0
2017-Oct-17 00:12N 43°43' E 013°33'0 0.0
2017-Oct-16 23:48N 43°43' E 013°33'0 0.0
2017-Oct-16 23:27N 43°43' E 013°33'0 0.0
2017-Oct-16 23:00N 43°43' E 013°33'0 0.0
2017-Oct-16 22:30N 43°43' E 013°33'0 0.0
2017-Oct-16 21:48N 43°43' E 013°33'0 0.0
2017-Oct-16 21:30N 43°43' E 013°33'0 0.1
2017-Oct-16 20:48N 43°43' E 013°32'0 0.3
2017-Oct-16 20:27N 43°43' E 013°32'0 0.1
2017-Oct-16 19:57N 43°43' E 013°32'0 0.0
2017-Oct-16 19:18N 43°43' E 013°32'0 0.0
2017-Oct-16 18:54N 43°43' E 013°32'0 0.0
2017-Oct-16 18:30N 43°43' E 013°32'0 0.0
2017-Oct-16 18:00N 43°43' E 013°32'0 0.0
2017-Oct-16 17:18N 43°43' E 013°32'0 0.0
2017-Oct-16 16:57N 43°43' E 013°32'0 0.0
2017-Oct-16 16:30N 43°43' E 013°32'0 0.0
2017-Oct-16 15:45N 43°43' E 013°32'0 0.0
2017-Oct-16 15:09N 43°43' E 013°32'0 0.1
2017-Oct-16 15:00N 43°43' E 013°32'0 0.2
2017-Oct-16 14:00N 43°43' E 013°33'2 3.1
2017-Oct-16 13:28N 43°43' E 013°35'4 6.7
2017-Oct-16 12:55N 43°43' E 013°40'2 4.9
2017-Oct-16 12:30N 43°44' E 013°43'4 7.4
2017-Oct-16 12:00N 43°42' E 013°48'612.5
2017-Oct-16 11:30N 43°38' E 013°54'612.8
2017-Oct-16 11:01N 43°35' E 014°01'713.1
2017-Oct-16 10:31N 43°30' E 014°08'713.2
2017-Oct-16 09:59N 43°26' E 014°16'713.5
2017-Oct-16 09:30N 43°22' E 014°23'713.2
2017-Oct-16 08:57N 43°18' E 014°31'813.3
2017-Oct-16 08:20N 43°13' E 014°40'513.7
2017-Oct-16 07:59N 43°10' E 014°45'714.0
2017-Oct-16 07:29N 43°06' E 014°53'714.1
2017-Oct-16 07:00N 43°01' E 014°60'5313.9
2017-Oct-16 03:10N 42°29' E 015°57'513.9
2017-Oct-16 02:48N 42°26' E 016°02'3714.0
2017-Oct-16 00:12N 41°60' E 016°38'313.9
2017-Oct-15 23:58N 41°58' E 016°41'613.8
2017-Oct-15 23:30N 41°53' E 016°47'713.9
2017-Oct-15 23:00N 41°48' E 016°53'714.0
2017-Oct-15 22:30N 41°44' E 017°00'714.0
2017-Oct-15 22:01N 41°40' E 017°08'714.0
2017-Oct-15 21:31N 41°36' E 017°16'914.1
2017-Oct-15 20:52N 41°31' E 017°26'514.0
2017-Oct-15 20:30N 41°28' E 017°32'713.9
2017-Oct-15 20:01N 41°25' E 017°39'713.7
2017-Oct-15 19:30N 41°21' E 017°47'713.7
2017-Oct-15 19:00N 41°17' E 017°55'713.7
2017-Oct-15 18:31N 41°13' E 018°02'713.7
2017-Oct-15 18:00N 41°10' E 018°10'714.0
2017-Oct-15 17:30N 41°06' E 018°17'713.9
2017-Oct-15 17:01N 41°01' E 018°25'713.8
2017-Oct-15 16:30N 40°56' E 018°30'713.8
2017-Oct-15 16:00N 40°49' E 018°33'713.5
2017-Oct-15 15:30N 40°43' E 018°37'713.4
2017-Oct-15 14:59N 40°37' E 018°41'12113.8
2017-Oct-15 06:16N 38°47' E 019°47'614.2
2017-Oct-15 05:52N 38°42' E 019°50'614.0
2017-Oct-15 05:28N 38°37' E 019°52'614.0
2017-Oct-15 05:00N 38°31' E 019°56'713.9
2017-Oct-15 04:30N 38°25' E 019°59'713.7
2017-Oct-15 04:00N 38°18' E 020°03'713.7
2017-Oct-15 03:30N 38°12' E 020°07'7313.8
2017-Oct-14 22:13N 37°08' E 020°50'206 9.3
2017-Oct-14 00:01N 38°25' E 024°53'9913.9
2017-Oct-13 16:54N 39°54' E 025°49'514.0
2017-Oct-13 16:30N 39°58' E 025°54'1213.3
2017-Oct-13 15:36N 40°01' E 026°09'112.8
2017-Oct-13 15:30N 40°02' E 026°10'  

Dump ship's entire track history